Time;durP1;ratioP1;P1;durP2;ratioP2;P2;SDS_P1;SDS_P2;PMS_P1;PMS_P2;Temp;Humidity;BMP_temperature;BMP_pressure;BME280_temperature;BME280_humidity;BME280_pressure;Samples;Min_cycle;Max_cycle;Signal;HPM_P1;HPM_P2
2023/06/11 00:01:14;;;;;;;;;;;;;;;20.52;100.00;99268.66;5012647;28;19952;-75
2023/06/11 00:03:42;;;;;;;;;;;;;;;20.54;100.00;99272.78;5030732;28;19917;-75
2023/06/11 00:06:10;;;;;;;;;;;;;;;20.53;100.00;99273.81;5030521;28;19917;-74
2023/06/11 00:08:36;;;;;;;;;;;;;;;20.48;100.00;99279.00;5030608;28;19917;-74
2023/06/11 00:11:01;;;;;;;;;;;;;;;20.48;100.00;99284.34;5030052;28;19917;-75
2023/06/11 00:13:27;;;;;;;;;;;;;;;20.44;100.00;99288.47;5030484;28;19917;-75
2023/06/11 00:15:52;;;;;;;;;;;;;;;20.37;100.00;99288.53;5032863;28;20285;-75
2023/06/11 00:18:18;;;;;;;;;;;;;;;20.27;100.00;99287.28;5037116;28;20705;-74
2023/06/11 00:20:43;;;;;;;;;;;;;;;20.23;100.00;99294.09;5037190;28;20329;-75
2023/06/11 00:23:09;;;;;;;;;;;;;;;20.18;100.00;99293.91;5036769;28;19923;-75
2023/06/11 00:25:35;;;;;;;;;;;;;;;20.12;100.00;99300.13;5037001;28;20284;-75
2023/06/11 00:28:00;;;;;;;;;;;;;;;20.03;100.00;99297.66;5018889;28;19917;-75
2023/06/11 00:30:26;;;;;;;;;;;;;;;20.06;100.00;99293.75;5036916;28;19925;-75
2023/06/11 00:32:51;;;;;;;;;;;;;;;19.91;100.00;99291.28;5018940;28;19917;-74
2023/06/11 00:35:17;;;;;;;;;;;;;;;19.94;100.00;99293.56;5036785;28;20377;-74
2023/06/11 00:37:42;;;;;;;;;;;;;;;19.94;100.00;99287.38;5019451;28;19941;-75
2023/06/11 00:40:09;;;;;;;9.77;8.00;;;;;;;19.99;100.00;99290.25;5036270;28;19951;-74
2023/06/11 00:42:35;;;;;;;7.93;6.97;;;;;;;20.02;100.00;99290.69;5036085;28;20049;-73
2023/06/11 00:45:03;;;;;;;7.55;6.85;;;;;;;20.08;100.00;99293.53;5018261;28;20480;-73
2023/06/11 00:47:29;;;;;;;7.60;7.00;;;;;;;19.90;100.00;99294.19;5036177;28;20029;-73
2023/06/11 00:49:56;;;;;;;8.10;7.32;;;;;;;19.83;100.00;99302.25;5036180;28;20537;-73
2023/06/11 00:52:22;;;;;;;8.60;7.90;;;;;;;19.77;100.00;99302.25;5036453;28;20396;-75
2023/06/11 00:54:48;;;;;;;12.13;9.38;;;;;;;19.79;100.00;99295.63;5036216;28;20038;-74
2023/06/11 00:57:24;;;;;;;11.80;7.97;;;;;;;19.82;100.00;99294.41;5035679;28;20317;-73
2023/06/11 00:59:53;;;;;;;10.88;7.90;;;;;;;19.87;100.00;99292.75;5033004;28;20123;-74
2023/06/11 01:02:47;;;;;;;8.82;8.00;;;;;;;19.90;100.00;99289.66;5015332;28;20398;-73
2023/06/11 01:05:17;;;;;;;10.18;7.95;;;;;;;19.83;100.00;99286.19;5025434;28;20052;-73
2023/06/11 01:07:51;;;;;;;9.32;8.32;;;;;;;19.85;100.00;99288.66;5019180;28;20156;-74
2023/06/11 01:10:21;;;;;;;10.65;8.43;;;;;;;19.83;100.00;99296.06;5018566;28;20036;-74
2023/06/11 01:12:50;;;;;;;11.57;8.55;;;;;;;19.87;100.00;99286.56;5017946;28;20044;-74
2023/06/11 01:15:15;;;;;;;9.93;8.68;;;;;;;19.83;100.00;99286.19;5035780;28;20042;-74
2023/06/11 01:17:50;;;;;;;11.57;8.70;;;;;;;19.82;100.00;99284.53;5036161;28;20037;-74
2023/06/11 01:20:25;;;;;;;10.27;8.02;;;;;;;19.76;100.00;99282.69;5017918;28;20084;-74
2023/06/11 01:22:57;;;;;;;8.57;7.85;;;;;;;19.63;100.00;99296.06;5018806;28;20037;-76
2023/06/11 01:25:44;;;;;;;10.50;8.95;;;;;;;19.52;100.00;99294.03;5015135;28;20036;-74
2023/06/11 01:28:16;;;;;;;10.82;7.90;;;;;;;19.48;100.00;99296.28;5012667;28;20034;-73
2023/06/11 01:30:49;;;;;;;10.27;6.90;;;;;;;19.49;100.00;99294.44;5015280;28;20041;-73
2023/06/11 01:33:18;;;;;;;7.93;6.97;;;;;;;19.48;100.00;99293.63;5015058;28;20052;-74
2023/06/11 01:35:48;;;;;;;11.20;7.22;;;;;;;19.35;100.00;99292.75;5014815;28;20528;-73
2023/06/11 01:38:15;;;;;;;8.07;6.93;;;;;;;19.31;100.00;99294.22;5014607;28;20044;-71
2023/06/11 01:40:48;;;;;;;7.97;7.07;;;;;;;19.29;100.00;99298.94;5015061;28;20037;-74
2023/06/11 01:43:15;;;;;;;9.32;7.22;;;;;;;19.30;100.00;99295.22;5010447;28;20475;-74
2023/06/11 01:45:41;;;;;;;11.93;7.78;;;;;;;19.33;100.00;99289.44;5032351;28;20056;-74
2023/06/11 01:48:06;;;;;;;12.07;8.00;;;;;;;19.35;100.00;99292.75;5014104;28;20505;-74
2023/06/11 01:50:33;;;;;;;9.25;7.20;;;;;;;19.37;100.00;99302.25;5014636;28;20103;-77
2023/06/11 01:52:59;;;;;;;8.35;7.53;;;;;;;19.40;100.00;99293.78;5031975;28;20029;-74
2023/06/11 01:55:27;;;;;;;7.18;6.47;;;;;;;19.38;100.00;99298.50;5014419;28;20026;-73
2023/06/11 01:57:53;;;;;;;8.35;6.30;;;;;;;19.43;100.00;99309.44;5014558;28;20036;-74
2023/06/11 02:00:18;;;;;;;8.15;7.40;;;;;;;19.47;100.00;99308.03;5013943;28;20048;-74
2023/06/11 02:02:48;;;;;;;7.78;6.97;;;;;;;19.47;100.00;99307.19;5031709;28;20065;-72
2023/06/11 02:05:16;;;;;;;8.18;6.35;;;;;;;19.44;100.00;99300.38;5009739;28;20528;-74
2023/06/11 02:07:42;;;;;;;7.70;6.38;;;;;;;19.40;100.00;99301.00;5014566;28;20061;-74
2023/06/11 02:10:08;;;;;;;8.25;6.47;;;;;;;19.39;100.00;99299.34;5013921;28;20068;-74
2023/06/11 02:12:35;;;;;;;7.78;6.45;;;;;;;19.35;100.00;99296.25;5014230;28;20049;-74
2023/06/11 02:15:01;;;;;;;9.85;6.28;;;;;;;19.35;100.00;99298.09;5013647;28;20041;-74
2023/06/11 02:17:26;;;;;;;6.68;5.97;;;;;;;19.28;100.00;99302.63;5013641;28;20036;-74
2023/06/11 02:19:52;;;;;;;6.88;6.20;;;;;;;19.33;100.00;99300.97;5031878;28;20124;-74
2023/06/11 02:22:18;;;;;;;10.00;7.80;;;;;;;19.31;100.00;99302.22;5031587;28;20513;-74
2023/06/11 02:24:43;;;;;;;10.02;7.95;;;;;;;19.19;100.00;99294.81;5032142;28;20033;-73
2023/06/11 02:27:09;;;;;;;9.50;7.50;;;;;;;19.12;100.00;99293.97;5013959;28;20029;-73
2023/06/11 02:29:35;;;;;;;12.48;8.82;;;;;;;19.15;100.00;99293.56;5013991;28;20025;-74
2023/06/11 02:32:03;;;;;;;13.15;8.57;;;;;;;19.08;100.00;99291.91;5031080;28;20614;-73
2023/06/11 02:34:29;;;;;;;9.23;8.38;;;;;;;19.10;100.00;99295.19;5031787;28;20021;-74
2023/06/11 02:36:55;;;;;;;10.38;9.00;;;;;;;19.16;100.00;99300.56;5031700;28;20036;-74
2023/06/11 02:39:21;;;;;;;12.43;8.77;;;;;;;19.18;100.00;99301.19;5027275;28;20041;-75
2023/06/11 02:41:47;;;;;;;9.05;8.20;;;;;;;19.17;100.00;99296.03;5031617;28;20461;-74
2023/06/11 02:44:12;;;;;;;9.65;8.45;;;;;;;19.16;100.00;99294.38;5013568;28;20043;-74
2023/06/11 02:46:38;;;;;;;9.88;8.45;;;;;;;19.10;100.00;99289.84;5031030;28;20116;-74
2023/06/11 02:49:04;;;;;;;13.75;9.85;;;;;;;19.10;100.00;99288.00;5026683;28;20026;-74
2023/06/11 02:51:30;;;;;;;12.32;9.32;;;;;;;19.11;100.00;99286.97;5013130;28;20440;-74
2023/06/11 02:53:55;;;;;;;12.50;11.20;;;;;;;19.03;100.00;99284.47;5012631;28;20091;-74
2023/06/11 02:56:21;;;;;;;16.25;12.52;;;;;;;19.04;100.00;99279.97;5030746;28;20025;-74
2023/06/11 02:58:47;;;;;;;13.23;11.13;;;;;;;19.09;100.00;99283.69;5013399;28;20036;-75
2023/06/11 03:01:13;;;;;;;12.70;11.43;;;;;;;19.12;100.00;99279.78;5012396;28;20482;-74
2023/06/11 03:03:39;;;;;;;13.40;11.77;;;;;;;19.16;100.00;99284.50;4999622;28;20037;-74
2023/06/11 03:06:05;;;;;;;13.60;11.50;;;;;;;19.07;100.00;99275.06;4996818;28;20063;-74
2023/06/11 03:08:32;;;;;;;12.93;11.00;;;;;;;19.02;100.00;99272.16;5031072;28;20053;-73
2023/06/11 03:10:57;;;;;;;14.57;10.93;;;;;;;18.99;100.00;99277.91;5030590;28;20477;-74
2023/06/11 03:13:23;;;;;;;13.43;11.30;;;;;;;19.02;100.00;99274.84;5013090;28;20427;-74
2023/06/11 03:15:51;;;;;;;12.55;10.55;;;;;;;18.98;100.00;99275.44;4997379;28;20138;-73
2023/06/11 03:18:17;;;;;;;13.80;11.23;;;;;;;18.93;100.00;99278.72;5045280;22;20089;-75
2023/06/11 03:20:43;;;;;;;17.10;12.73;;;;;;;18.95;100.00;99281.19;5004321;28;20038;-77
2023/06/11 03:23:10;;;;;;;15.27;11.25;;;;;;;18.95;100.00;99282.03;5002891;28;20052;-77
2023/06/11 03:25:36;;;;;;;13.02;11.63;;;;;;;18.98;100.00;99286.94;5003340;28;20064;-78
2023/06/11 03:28:02;;;;;;;15.43;11.55;;;;;;;19.01;100.00;99280.38;5004041;28;20025;-79
2023/06/11 03:30:28;;;;;;;12.57;10.75;;;;;;;18.99;100.00;99288.59;5001922;28;20037;-79
2023/06/11 03:32:53;;;;;;;14.75;10.80;;;;;;;18.97;100.00;99282.63;5022442;28;20021;-78
2023/06/11 03:35:19;;;;;;;15.45;10.48;;;;;;;18.91;100.00;99283.44;5000926;28;20017;-77
2023/06/11 03:37:45;;;;;;;13.85;10.23;;;;;;;18.87;100.00;99284.88;5004021;28;20379;-78
2023/06/11 03:40:15;;;;;;;11.60;10.43;;;;;;;18.88;100.00;99296.41;4988722;28;20033;-78
2023/06/11 03:42:41;;;;;;;18.88;12.38;;;;;;;18.89;100.00;99284.69;5002652;28;20048;-77
2023/06/11 03:45:07;;;;;;;13.55;11.32;;;;;;;18.92;100.00;99282.41;5020274;28;20073;-78
2023/06/11 03:47:33;;;;;;;14.70;11.23;;;;;;;18.94;100.00;99275.03;5003726;28;20067;-77
2023/06/11 03:49:59;;;;;;;14.70;11.35;;;;;;;18.98;100.00;99280.78;5021466;28;20116;-77
2023/06/11 03:52:25;;;;;;;13.38;11.98;;;;;;;19.00;100.00;99289.44;5000793;28;20188;-77
2023/06/11 03:54:51;;;;;;;19.13;12.00;;;;;;;18.98;100.00;99286.94;4992470;28;20390;-76
2023/06/11 03:57:18;;;;;;;18.85;11.77;;;;;;;18.99;100.00;99291.28;5021973;28;20037;-77
2023/06/11 03:59:44;;;;;;;14.75;11.73;;;;;;;19.02;100.00;99290.88;5002002;28;20026;-77
2023/06/11 04:02:10;;;;;;;13.75;12.35;;;;;;;18.96;100.00;99283.69;5020411;28;20018;-77
2023/06/11 04:04:36;;;;;;;14.68;12.27;;;;;;;18.96;100.00;99289.03;5020223;28;20034;-77
2023/06/11 04:07:02;;;;;;;13.68;11.80;;;;;;;18.97;100.00;99290.66;4990742;28;20393;-77
2023/06/11 04:09:28;;;;;;;13.35;11.95;;;;;;;18.93;100.00;99294.75;5021797;28;20033;-76
2023/06/11 04:11:53;;;;;;;15.02;12.10;;;;;;;18.94;100.00;99301.75;4989308;28;20041;-77
2023/06/11 04:14:19;;;;;;;17.38;13.25;;;;;;;18.94;100.00;99298.25;5008936;28;20046;-77
2023/06/11 04:16:44;;;;;;;18.38;14.23;;;;;;;18.98;100.00;99300.31;5003780;28;20026;-78
2023/06/11 04:19:10;;;;;;;17.55;15.68;;;;;;;19.03;100.00;99295.19;5000485;28;20042;-77
2023/06/11 04:21:37;;;;;;;17.45;14.13;;;;;;;19.03;100.00;99295.19;5020136;28;20444;-79
2023/06/11 04:24:03;;;;;;;19.85;15.27;;;;;;;19.07;100.00;99300.97;5001429;28;20124;-79
2023/06/11 04:26:31;;;;;;;16.38;14.68;;;;;;;19.10;100.00;99289.84;5004471;28;20041;-79
2023/06/11 04:28:57;;;;;;;18.85;15.27;;;;;;;19.10;100.00;99290.69;5001149;28;20189;-79
2023/06/11 04:31:26;;;;;;;20.75;15.27;;;;;;;19.00;100.00;99286.75;5004482;28;20028;-79
2023/06/11 04:33:56;;;;;;;17.92;13.75;;;;;;;18.91;100.00;99291.47;5000529;28;20041;-79
2023/06/11 04:36:24;;;;;;;17.13;12.73;;;;;;;18.94;100.00;99304.44;5018511;28;20049;-79
2023/06/11 04:38:51;;;;;;;14.70;13.10;;;;;;;18.97;100.00;99316.56;5004262;28;20584;-79
2023/06/11 04:41:17;;;;;;;13.50;11.93;;;;;;;18.94;100.00;99306.28;5001041;28;20069;-79
2023/06/11 04:43:47;;;;;;;12.02;10.93;;;;;;;18.93;100.00;99305.47;5003765;28;20055;-79
2023/06/11 04:46:12;;;;;;;14.70;10.20;;;;;;;18.97;100.00;99312.03;5001490;28;20490;-77
2023/06/11 04:48:38;;;;;;;16.02;10.25;;;;;;;18.97;100.00;99316.56;5001414;28;20033;-77
2023/06/11 04:51:04;;;;;;;12.00;9.80;;;;;;;19.01;100.00;99313.31;5018990;28;20045;-79
2023/06/11 04:53:37;;;;;;;11.88;10.50;;;;;;;19.01;100.00;99307.94;5002598;28;20091;-78
2023/06/11 04:56:04;;;;;;;10.88;9.88;;;;;;;19.01;100.00;99307.13;5001671;28;20030;-79
2023/06/11 04:58:33;;;;;;;13.43;10.13;;;;;;;18.95;100.00;99311.44;5003330;28;20124;-79
2023/06/11 05:00:59;;;;;;;13.55;9.95;;;;;;;18.89;100.00;99317.59;5004635;28;20030;-79
2023/06/11 05:03:36;;;;;;;13.15;9.38;;;;;;;18.80;100.00;99316.09;5004475;28;20390;-79
2023/06/11 05:06:02;;;;;;;14.98;10.07;;;;;;;18.77;100.00;99322.69;4993188;28;20090;-79
2023/06/11 05:08:28;;;;;;;12.45;11.02;;;;;;;18.86;100.00;99319.81;5007550;28;20087;-77
2023/06/11 05:10:57;;;;;;;17.10;12.00;;;;;;;18.98;100.00;99313.69;5003826;28;20061;-78
2023/06/11 05:13:26;;;;;;;17.42;14.38;;;;;;;19.01;100.00;99324.00;5007375;28;20033;-79
2023/06/11 05:15:57;;;;;;;16.55;14.82;;;;;;;18.95;100.00;99313.28;5007882;28;20458;-79
2023/06/11 05:18:25;;;;;;;17.08;14.57;;;;;;;19.02;100.00;99320.31;5007165;28;20511;-80
2023/06/11 05:20:54;;;;;;;16.77;14.40;;;;;;;19.07;100.00;99317.00;5007425;28;20391;-77
2023/06/11 05:23:28;;;;;;;17.02;14.60;;;;;;;19.11;100.00;99310.22;5006484;28;20029;-78
2023/06/11 05:26:08;;;;;;;19.63;13.63;;;;;;;19.18;100.00;99308.38;5007553;28;20040;-79
2023/06/11 05:28:35;;;;;;;;;;;;;;;19.22;100.00;99314.97;5005450;28;20132;-79
2023/06/11 05:31:03;;;;;;;15.68;13.93;;;;;;;19.29;100.00;99314.97;5007076;28;20000;-79
2023/06/11 05:33:30;;;;;;;16.20;13.65;;;;;;;19.40;100.00;99306.34;5007774;28;20021;-77
2023/06/11 05:35:56;;;;;;;16.60;12.82;;;;;;;19.34;100.00;99307.16;5003058;28;20041;-78
2023/06/11 05:38:24;;;;;;;18.15;13.30;;;;;;;19.39;100.00;99307.34;5006874;28;20025;-78
2023/06/11 05:40:50;;;;;;;17.02;12.82;;;;;;;19.39;100.00;99304.69;5003334;28;20048;-79
2023/06/11 05:43:16;;;;;;;13.82;12.52;;;;;;;19.43;100.00;99300.59;5023439;28;20041;-78
2023/06/11 05:45:48;;;;;;;15.43;13.32;;;;;;;19.50;100.00;99302.25;5004775;28;20508;-78
2023/06/11 05:48:16;;;;;;;16.02;14.25;;;;;;;19.46;100.00;99300.19;5005898;28;20038;-78
2023/06/11 05:50:42;;;;;;;17.23;15.05;;;;;;;19.50;100.00;99288.88;5004420;28;20106;-77
2023/06/11 05:53:09;;;;;;;15.82;14.02;;;;;;;19.57;100.00;99288.88;5004614;28;20108;-79
2023/06/11 05:55:37;;;;;;;17.70;15.05;;;;;;;19.62;100.00;99294.41;5005041;28;20133;-78
2023/06/11 05:58:04;;;;;;;16.77;14.93;;;;;;;19.61;100.00;99287.44;5003824;28;20026;-78
2023/06/11 06:00:29;;;;;;;20.02;16.17;;;;;;;19.58;100.00;99287.84;5005951;28;20033;-79
2023/06/11 06:02:55;;;;;;;19.98;15.35;;;;;;;19.54;100.00;99294.66;5020859;28;20033;-79
2023/06/11 06:05:26;;;;;;;23.23;17.17;;;;;;;19.51;100.00;99295.88;5024734;28;20037;-78
2023/06/11 06:07:51;;;;;;;20.83;16.15;;;;;;;19.52;100.00;99296.69;5020884;28;20030;-78
2023/06/11 06:10:17;;;;;;;24.42;17.02;;;;;;;19.57;100.00;99288.88;5003283;28;20449;-78
2023/06/11 06:12:42;;;;;;;19.92;17.70;;;;;;;19.58;100.00;99287.84;5003285;28;20042;-76
2023/06/11 06:15:09;;;;;;;18.20;15.15;;;;;;;19.59;100.00;99290.31;5003206;28;20033;-79
2023/06/11 06:17:38;;;;;;;19.77;14.70;;;;;;;19.62;100.00;99291.75;5002980;28;20034;-78
2023/06/11 06:20:04;;;;;;;18.05;14.32;;;;;;;19.78;100.00;99290.50;5002945;28;21018;-77
2023/06/11 06:22:31;;;;;;;17.55;14.88;;;;;;;19.81;100.00;99296.25;5024854;28;20044;-75
2023/06/11 06:24:57;;;;;;;16.80;12.88;;;;;;;19.83;100.00;99296.88;5008860;28;20048;-76
2023/06/11 06:27:22;;;;;;;15.13;13.38;;;;;;;19.83;100.00;99307.59;5028643;28;20474;-79
2023/06/11 06:29:49;;;;;;;14.02;12.63;;;;;;;19.94;100.00;99309.63;5012681;28;20034;-77
2023/06/11 06:32:15;;;;;;;17.73;12.48;;;;;;;19.94;100.00;99315.00;5008718;28;20033;-78
2023/06/11 06:34:41;;;;;;;13.07;11.77;;;;;;;20.06;100.00;99322.38;5009829;28;20038;-75
2023/06/11 06:37:09;;;;;;;15.98;11.57;;;;;;;20.14;100.00;99314.13;5010232;28;20390;-77
2023/06/11 06:39:34;;;;;;;15.38;11.40;;;;;;;20.23;100.00;99312.84;5009261;28;20049;-78
2023/06/11 06:42:00;;;;;;;15.18;12.32;;;;;;;20.28;100.00;99315.72;5017777;28;20051;-77
2023/06/11 06:44:36;;;;;;;13.65;12.27;;;;;;;20.34;100.00;99314.91;5008745;28;20042;-77
2023/06/11 06:47:02;;;;;;;14.48;12.88;;;;;;;20.37;100.00;99320.69;5012605;28;20038;-77
2023/06/11 06:49:28;;;;;;;17.10;13.18;;;;;;;20.39;100.00;99315.91;5023959;28;20033;-78
2023/06/11 06:51:53;;;;;;;15.35;13.82;;;;;;;20.42;100.00;99312.00;5025331;28;20065;-80
2023/06/11 06:54:19;;;;;;;16.50;14.52;;;;;;;20.40;100.00;99314.88;5006699;28;20460;-80
2023/06/11 06:56:47;;;;;;;16.20;14.38;;;;;;;20.47;100.00;99324.78;5010074;28;20448;-78
2023/06/11 06:59:14;;;;;;;16.73;14.73;;;;;;;20.48;100.00;99321.88;5026373;28;20025;-78
2023/06/11 07:01:40;;;;;;;18.73;15.38;;;;;;;20.51;100.00;99316.09;5006036;28;20029;-79
2023/06/11 07:04:06;;;;;;;18.58;15.82;;;;;;;20.59;100.00;99317.72;4996862;28;20032;-80
2023/06/11 07:06:32;;;;;;;17.20;14.90;;;;;;;20.64;100.00;99320.56;4994882;28;20037;-77
2023/06/11 07:08:58;;;;;;;19.88;15.82;;;;;;;20.72;100.00;99317.66;5007045;28;20038;-78
2023/06/11 07:11:24;;;;;;;19.10;16.25;;;;;;;20.79;100.00;99321.13;5009431;28;20025;-77
2023/06/11 07:13:49;;;;;;;20.77;16.30;;;;;;;20.87;100.00;99320.03;5026416;28;20037;-78
2023/06/11 07:16:15;;;;;;;18.73;16.77;;;;;;;20.95;100.00;99315.25;5009097;28;20034;-78
2023/06/11 07:18:48;;;;;;;18.98;15.23;;;;;;;21.07;100.00;99315.41;5007129;28;20065;-79
2023/06/11 07:21:14;;;;;;;26.58;17.05;;;;;;;21.13;100.00;99309.16;5012198;28;20061;-78
2023/06/11 07:23:40;;;;;;;18.48;16.52;;;;;;;21.19;100.00;99313.69;5003557;28;20029;-76
2023/06/11 07:26:07;;;;;;;18.42;16.05;;;;;;;21.28;100.00;99307.00;5003418;28;20029;-76
2023/06/11 07:28:34;;;;;;;18.35;15.38;;;;;;;21.35;100.00;99318.53;5005123;28;20543;-78
2023/06/11 07:31:00;;;;;;;20.40;16.88;;;;;;;21.44;100.00;99316.41;5011578;28;20163;-78
2023/06/11 07:33:25;;;;;;;21.80;16.60;;;;;;;21.53;100.00;99315.91;5022864;28;20131;-77
2023/06/11 07:35:53;;;;;;;19.90;15.70;;;;;;;21.59;100.00;99309.66;5006302;28;20049;-78
2023/06/11 07:38:18;;;;;;;20.23;16.10;;;;;;;21.65;100.00;99319.53;5005984;28;20030;-79
2023/06/11 07:40:45;;;;;;;18.85;16.05;;;;;;;21.72;100.00;99321.34;5025670;28;20037;-80
2023/06/11 07:43:11;;;;;;;18.23;16.17;;;;;;;21.82;100.00;99316.28;5023122;28;20055;-80
2023/06/11 07:45:37;;;;;;;19.13;16.77;;;;;;;21.88;100.00;99312.72;5023180;28;20494;-79
2023/06/11 07:48:02;;;;;;;18.98;16.35;;;;;;;21.95;100.00;99324.25;5026554;28;20036;-80
2023/06/11 07:50:28;;;;;;;20.55;16.63;;;;;;;22.00;100.00;99317.16;5002877;28;20038;-81
2023/06/11 07:52:54;;;;;;;17.40;15.30;;;;;;;22.08;100.00;99318.75;5008117;28;20026;-80
2023/06/11 07:55:23;;;;;;;18.30;15.93;;;;;;;22.04;100.00;99317.53;5001568;28;20389;-80
2023/06/11 07:57:48;;;;;;;17.92;15.82;;;;;;;22.01;100.00;99316.13;5026104;28;20066;-81
2023/06/11 08:00:16;;;;;;;19.98;16.23;;;;;;;22.08;100.00;99313.38;5024568;28;20103;-84
2023/06/11 08:02:42;;;;;;;21.02;15.13;;;;;;;22.20;100.00;99316.97;5024968;28;20040;-80
2023/06/11 08:05:10;;;;;;;19.23;15.85;;;;;;;22.19;100.00;99315.31;5020611;28;20034;-84
2023/06/11 08:07:35;;;;;;;16.98;15.10;;;;;;;22.28;100.00;99316.66;5006073;28;20057;-79
2023/06/11 08:10:01;;;;;;;17.27;15.43;;;;;;;22.39;100.00;99305.16;5024528;28;20033;-79
2023/06/11 08:12:26;;;;;;;16.42;14.52;;;;;;;22.52;100.00;99306.03;5026180;28;20331;-80
2023/06/11 08:14:52;;;;;;;15.10;13.57;;;;;;;22.59;100.00;99307.59;5024149;28;20120;-78
2023/06/11 08:17:17;;;;;;;17.92;14.23;;;;;;;22.66;100.00;99304.84;5018513;28;20496;-79
2023/06/11 08:19:43;;;;;;;16.38;14.68;;;;;;;22.66;100.00;99310.22;5025702;28;20046;-78
2023/06/11 08:22:08;;;;;;;16.38;13.82;;;;;;;22.63;100.00;99305.28;5024731;28;20038;-75
2023/06/11 08:24:33;;;;;;;;;;;;;;;22.61;100.00;99302.00;5007852;28;20041;-78
2023/06/11 08:26:59;;;;;;;;;;;;;;;22.59;100.00;99293.34;5022105;28;19917;-79
2023/06/11 08:29:24;;;;;;;;;;;;;;;22.61;100.00;99302.00;5021617;28;19917;-78
2023/06/11 08:31:51;;;;;;;;;;;;;;;22.66;100.00;99299.44;5025376;28;19917;-79
2023/06/11 08:34:16;;;;;;;;;;;;;;;22.75;100.00;99292.72;5023998;28;19929;-77
2023/06/11 08:36:42;;;;;;;;;;;;;;;22.86;100.00;99291.94;5022377;28;19970;-78
2023/06/11 08:39:07;;;;;;;;;;;;;;;22.93;100.00;99292.69;5026950;28;19999;-76
2023/06/11 08:41:32;;;;;;;;;;;;;;;23.00;100.00;99290.72;5028813;28;20361;-80
2023/06/11 08:43:58;;;;;;;;;;;;;;;23.08;100.00;99295.78;5027149;28;20341;-79
2023/06/11 08:46:24;;;;;;;;;;;;;;;23.14;100.00;99291.38;5007870;28;20357;-81
2023/06/11 08:49:00;;;;;;;;;;;;;;;23.10;100.00;99285.59;5028924;28;19918;-79
2023/06/11 08:51:33;;;;;;;;;;;;;;;23.07;100.00;99291.47;5027986;28;19917;-82
2023/06/11 08:53:58;;;;;;;;;;;;;;;23.14;100.00;99286.81;5027794;28;19965;-79
2023/06/11 08:56:24;;;;;;;;;;;;;;;23.20;100.00;99285.06;5026950;28;20020;-80
2023/06/11 08:58:49;;;;;;;;;;;;;;;23.27;100.00;99291.97;5025564;28;20281;-81
2023/06/11 09:01:15;;;;;;;;;;;;;;;23.34;100.00;99285.66;5028734;28;19921;-79
2023/06/11 09:03:41;;;;;;;;;;;;;;;23.41;100.00;99287.19;5026906;28;19927;-81
2023/06/11 09:06:06;;;;;;;;;;;;;;;23.49;100.00;99286.06;5027010;28;19917;-76
2023/06/11 09:08:31;;;;;;;;;;;;;;;23.59;100.00;99295.22;5005957;28;19921;-81
2023/06/11 09:10:57;;;;;;;;;;;;;;;23.68;100.00;99287.59;5008753;28;19923;-80
2023/06/11 09:13:26;;;;;;;;;;;;;;;23.75;100.00;99291.00;5025643;28;19933;-80
2023/06/11 09:15:53;;;;;;;;;;;;;;;23.83;100.00;99285.25;5023656;28;19921;-79
2023/06/11 09:18:23;;;;;;;;;;;;;;;23.91;100.00;99298.38;5021545;28;20448;-80
2023/06/11 09:20:52;;;;;;;;;;;;;;;23.96;100.00;99285.03;5024235;28;19924;-78
2023/06/11 09:23:30;;;;;;;;;;;;;;;24.02;100.00;99291.34;5025355;28;19994;-80
2023/06/11 09:25:56;;;;;;;;;;;;;;;24.09;100.00;99289.34;5021373;28;19970;-80
2023/06/11 09:28:27;;;;;;;;;;;;;;;24.14;100.00;99294.84;5023597;28;20336;-79
2023/06/11 09:30:53;;;;;;;;;;;;;;;24.20;100.00;99296.63;5027699;28;20377;-79
2023/06/11 09:33:18;;;;;;;;;;;;;;;24.27;100.00;99286.50;5024684;28;19917;-80
2023/06/11 09:35:45;;;;;;;8.35;7.43;;;;;;;24.29;100.00;99294.38;5021558;28;19915;-80
2023/06/11 09:38:16;;;;;;;8.60;7.70;;;;;;;24.37;100.00;99291.31;5006254;28;20045;-81
2023/06/11 09:40:46;;;;;;;7.97;6.65;;;;;;;24.43;100.00;99295.75;5023147;28;20029;-79
2023/06/11 09:43:12;;;;;;;7.93;7.18;;;;;;;24.46;100.00;99290.69;5023661;28;20049;-78
2023/06/11 09:45:38;;;;;;;7.55;6.53;;;;;;;24.46;100.00;99289.88;5023973;28;20112;-79
2023/06/11 09:48:05;;;;;;;7.68;6.97;;;;;;;24.47;100.00;99286.13;5022903;28;20025;-79
2023/06/11 09:50:33;;;;;;;9.32;6.75;;;;;;;24.49;100.00;99284.00;5022602;28;20041;-80
2023/06/11 09:53:01;;;;;;;;;;;;;;;24.54;100.00;99292.19;5021421;28;20061;-78
2023/06/11 09:55:27;;;;;;;;;;;;;;;24.61;100.00;99290.19;5023872;28;19924;-80
2023/06/11 09:57:53;;;;;;;;;;;;;;;24.66;100.00;99287.59;5024745;28;19917;-80
2023/06/11 10:00:19;;;;;;;;;;;;;;;24.73;100.00;99282.88;5022381;28;20259;-79
2023/06/11 10:02:44;;;;;;;;;;;;;;;24.77;100.00;99285.91;5027470;28;19917;-80
2023/06/11 10:05:10;;;;;;;;;;;;;;;24.76;100.00;99282.38;5020670;28;19947;-80
2023/06/11 10:07:39;;;;;;;;;;;;;;;24.79;100.00;99284.59;5020885;28;19939;-79
2023/06/11 10:10:06;;;;;;;;;;;;;;;24.82;100.00;99288.69;5022689;28;20012;-79
2023/06/11 10:12:33;;;;;;;;;;;;;;;24.86;100.00;99285.25;5024708;28;19921;-79
2023/06/11 10:14:59;;;;;;;;;;;;;;;24.93;100.00;99289.72;5020957;28;19916;-79
2023/06/11 10:17:24;;;;;;;;;;;;;;;24.96;100.00;99294.66;5023326;28;19928;-79
2023/06/11 10:19:50;;;;;;;;;;;;;;;24.98;100.00;99282.53;5019634;28;20260;-80
2023/06/11 10:22:30;;;;;;;;;;;;;;;25.03;100.00;99289.94;5020391;28;20015;-81
2023/06/11 10:24:58;;;;;;;;;;;;;;;25.05;100.00;99294.00;5023452;28;19920;-79
2023/06/11 10:27:33;;;;;;;;;;;;;;;25.10;100.00;99287.88;5020700;28;20311;-79
2023/06/11 10:29:59;;;;;;;;;;;;;;;25.14;100.00;99286.34;5020450;28;20016;-79
2023/06/11 10:32:24;;;;;;;;;;;;;;;25.21;100.00;99284.31;5021587;28;20008;-79
2023/06/11 10:34:54;;;;;;;;;;;;;;;25.25;100.00;99280.03;5020368;28;19920;-78
2023/06/11 10:37:30;;;;;;;;;;;;;;;25.33;100.00;99279.63;5020006;28;19922;-79
2023/06/11 10:39:55;;;;;;;;;;;;;;;25.33;100.00;99285.03;5023272;28;19917;-77
2023/06/11 10:42:22;;;;;;;;;;;;;;;25.39;100.00;99283.25;5008602;28;19924;-79
2023/06/11 10:44:47;;;;;;;;;;;;;;;25.45;100.00;99280.38;5022061;28;20016;-79
2023/06/11 10:47:12;;;;;;;;;;;;;;;25.55;100.00;99283.25;5022806;28;19957;-78
2023/06/11 10:49:38;;;;;;;;;;;;;;;25.62;100.00;99283.91;5023395;28;19948;-80
2023/06/11 10:52:03;;;;;;;;;;;;;;;25.67;100.00;99286.72;5022408;28;20399;-80
2023/06/11 10:54:33;;;;;;;;;;;;;;;25.69;100.00;99284.56;5019271;28;19920;-79
2023/06/11 10:56:59;;;;;;;;;;;;;;;25.76;100.00;99283.56;5019997;28;19963;-80
2023/06/11 10:59:25;;;;;;;;;;;;;;;25.83;100.00;99284.22;5019836;28;19955;-82
2023/06/11 11:01:52;;;;;;;;;;;;;;;25.88;100.00;99278.88;5023587;28;19957;-81
2023/06/11 11:04:17;;;;;;;;;;;;;;;25.87;100.00;99274.53;5023262;28;20015;-79
2023/06/11 11:06:43;;;;;;;;;;;;;;;25.89;100.00;99277.81;5020774;28;20453;-78
2023/06/11 11:09:08;;;;;;;;;;;;;;;25.89;100.00;99272.41;5020554;28;19917;-79
2023/06/11 11:11:34;;;;;;;;;;;;;;;25.88;100.00;99270.78;5020838;28;20369;-79
2023/06/11 11:14:00;;;;;;;;;;;;;;;25.90;100.00;99279.47;5022747;28;19917;-81
2023/06/11 11:16:25;;;;;;;;;;;;;;;25.93;100.00;99270.84;5020922;28;19918;-86
2023/06/11 11:18:51;;;;;;;;;;;;;;;25.92;100.00;99271.94;5020547;28;19917;-84
2023/06/11 11:21:17;;;;;;;;;;;;;;;25.94;100.00;99276.00;5021707;28;19928;-83
2023/06/11 11:23:46;;;;;;;;;;;;;;;25.99;100.00;99273.38;5020579;28;20380;-84
2023/06/11 11:26:11;;;;;;;;;;;;;;;26.05;100.00;99266.16;5020891;28;19918;-84
2023/06/11 11:28:36;;;;;;;;;;;;;;;26.12;100.00;99261.38;5021376;28;20393;-84
2023/06/11 11:31:02;;;;;;;;;;;;;;;26.19;100.00;99264.72;5019811;28;19928;-84
2023/06/11 11:33:28;;;;;;;;;;;;;;;26.24;100.00;99258.59;5022957;28;19939;-84
2023/06/11 11:35:56;;;;;;;;;;;;;;;26.30;100.00;99261.09;5019263;28;19917;-83